CFG024 EDDM-HEGN
Flight info
| Callsign | CFG024 |
|---|---|
| Flight time | N/A |
| Altitude | 33000 |
| Route | VAVOR3S VAVOR M867 RADIZ DCT EVAXI DCT NIPEL DCT VRANA DCT PETAK DCT DIMIS UL604 SALUN N705 BOPIX N710 TAKRI M720 FYM M872 BOPOB BOPOB1A |
| Aircraft | A21N/M-SDE2E3FGHIRWXY/LB1 |
Departure
| Time | 2026-05-07 17:22 |
|---|---|
| Airport | Munich Airport (EDDM) |
Arrival
| Time | N/A |
|---|---|
| Airport | Hurghada International Airport (HEGN) |
| Time | Latitude | Longitude | Altitude | Speed | Heading |
|---|---|---|---|---|---|
| 2026-05-07 16:08 | 48.35369 | 11.77679 | 1491 ft | 0 kts | 263° |
| 2026-05-07 16:58 | 48.35370 | 11.77686 | 1483 ft | 4 kts | 263° |
| 2026-05-07 16:59 | 48.35373 | 11.77726 | 1479 ft | 4 kts | 261° |
| 2026-05-07 16:59 | 48.35381 | 11.77761 | 1475 ft | 4 kts | 224° |
| 2026-05-07 16:59 | 48.35393 | 11.77773 | 1477 ft | 4 kts | 185° |
| 2026-05-07 16:59 | 48.35422 | 11.77770 | 1483 ft | 2 kts | 173° |
| 2026-05-07 17:00 | 48.35424 | 11.77770 | 1483 ft | 0 kts | 173° |
| 2026-05-07 17:04 | 48.35421 | 11.77770 | 1493 ft | 2 kts | 174° |
| 2026-05-07 17:04 | 48.35394 | 11.77774 | 1477 ft | 5 kts | 174° |
| 2026-05-07 17:04 | 48.35355 | 11.77781 | 1487 ft | 6 kts | 174° |
| 2026-05-07 17:04 | 48.35306 | 11.77789 | 1487 ft | 8 kts | 173° |
| 2026-05-07 17:05 | 48.35248 | 11.77799 | 1488 ft | 9 kts | 173° |
| 2026-05-07 17:05 | 48.35179 | 11.77811 | 1482 ft | 11 kts | 173° |
| 2026-05-07 17:05 | 48.35100 | 11.77825 | 1486 ft | 12 kts | 173° |
| 2026-05-07 17:05 | 48.35046 | 11.77834 | 1487 ft | 4 kts | 173° |
| 2026-05-07 17:06 | 48.35006 | 11.77841 | 1482 ft | 8 kts | 173° |
| 2026-05-07 17:06 | 48.34940 | 11.77854 | 1491 ft | 11 kts | 173° |
| 2026-05-07 17:06 | 48.34914 | 11.77859 | 1478 ft | 0 kts | 173° |
| 2026-05-07 17:07 | 48.34908 | 11.77860 | 1498 ft | 0 kts | 173° |
| 2026-05-07 17:07 | 48.34720 | 11.77894 | 1491 ft | 0 kts | 173° |
| 2026-05-07 17:07 | 48.34714 | 11.77895 | 1491 ft | 3 kts | 174° |
| 2026-05-07 17:07 | 48.34676 | 11.77901 | 1486 ft | 6 kts | 174° |
| 2026-05-07 17:08 | 48.34673 | 11.77901 | 1487 ft | 0 kts | 173° |
| 2026-05-07 17:08 | 48.34667 | 11.77931 | 1488 ft | 6 kts | 81° |
| 2026-05-07 17:08 | 48.34672 | 11.78020 | 1491 ft | 11 kts | 83° |
| 2026-05-07 17:08 | 48.34683 | 11.78156 | 1480 ft | 15 kts | 84° |
| 2026-05-07 17:09 | 48.34696 | 11.78326 | 1479 ft | 17 kts | 83° |
| 2026-05-07 17:09 | 48.34709 | 11.78500 | 1491 ft | 16 kts | 83° |
| 2026-05-07 17:09 | 48.34715 | 11.78581 | 1492 ft | 4 kts | 83° |
| 2026-05-07 17:09 | 48.34720 | 11.78643 | 1487 ft | 8 kts | 83° |
| 2026-05-07 17:10 | 48.34728 | 11.78743 | 1488 ft | 11 kts | 83° |
| 2026-05-07 17:10 | 48.34738 | 11.78868 | 1479 ft | 13 kts | 83° |
| 2026-05-07 17:10 | 48.34749 | 11.79007 | 1491 ft | 14 kts | 83° |
| 2026-05-07 17:10 | 48.34760 | 11.79159 | 1491 ft | 15 kts | 83° |
| 2026-05-07 17:11 | 48.34773 | 11.79323 | 1487 ft | 16 kts | 83° |
| 2026-05-07 17:11 | 48.34784 | 11.79468 | 1478 ft | 11 kts | 83° |
| 2026-05-07 17:11 | 48.34793 | 11.79590 | 1486 ft | 13 kts | 84° |
| 2026-05-07 17:11 | 48.34803 | 11.79725 | 1487 ft | 14 kts | 83° |
| 2026-05-07 17:12 | 48.34815 | 11.79877 | 1491 ft | 15 kts | 83° |
| 2026-05-07 17:12 | 48.34827 | 11.80032 | 1483 ft | 14 kts | 82° |
| 2026-05-07 17:12 | 48.34829 | 11.80058 | 1487 ft | 2 kts | 83° |
| 2026-05-07 17:12 | 48.34832 | 11.80123 | 1487 ft | 12 kts | 111° |
| 2026-05-07 17:13 | 48.34776 | 11.80219 | 1482 ft | 13 kts | 146° |
| 2026-05-07 17:13 | 48.34684 | 11.80248 | 1491 ft | 14 kts | 173° |
| 2026-05-07 17:13 | 48.34604 | 11.80263 | 1486 ft | 4 kts | 173° |
| 2026-05-07 17:13 | 48.34586 | 11.80266 | 1483 ft | 0 kts | 173° |
| 2026-05-07 17:18 | 48.34577 | 11.80268 | 1481 ft | 4 kts | 173° |
| 2026-05-07 17:19 | 48.34527 | 11.80275 | 1491 ft | 10 kts | 180° |
| 2026-05-07 17:19 | 48.34463 | 11.80185 | 1486 ft | 17 kts | 259° |
| 2026-05-07 17:19 | 48.34454 | 11.80105 | 1491 ft | 0 kts | 263° |
| 2026-05-07 17:21 | 48.34451 | 11.80065 | 1491 ft | 23 kts | 263° |
| 2026-05-07 17:22 | 48.34406 | 11.79448 | 1480 ft | 93 kts | 263° |
| 2026-05-07 17:22 | 48.34304 | 11.78155 | 1487 ft | 150 kts | 264° |
| 2026-05-07 17:22 | 48.34168 | 11.76430 | 1760 ft | 167 kts | 265° |
| 2026-05-07 17:22 | 48.34030 | 11.74761 | 2637 ft | 159 kts | 263° |
| 2026-05-07 17:23 | 48.33898 | 11.73085 | 3272 ft | 162 kts | 264° |
| 2026-05-07 17:23 | 48.33777 | 11.71396 | 3912 ft | 163 kts | 264° |
| 2026-05-07 17:23 | 48.33552 | 11.69721 | 4521 ft | 167 kts | 243° |
| 2026-05-07 17:23 | 48.32631 | 11.68678 | 5088 ft | 180 kts | 198° |
| 2026-05-07 17:24 | 48.31368 | 11.68963 | 5684 ft | 192 kts | 161° |
| 2026-05-07 17:24 | 48.30231 | 11.70117 | 6300 ft | 198 kts | 144° |
| 2026-05-07 17:24 | 48.29065 | 11.71077 | 6788 ft | 191 kts | 177° |
| 2026-05-07 17:24 | 48.27764 | 11.71085 | 6983 ft | 190 kts | 178° |
| 2026-05-07 17:25 | 48.26586 | 11.72051 | 7022 ft | 203 kts | 139° |
| 2026-05-07 17:25 | 48.25607 | 11.73576 | 7035 ft | 202 kts | 142° |
| 2026-05-07 17:25 | 48.24537 | 11.74926 | 7028 ft | 200 kts | 148° |
| 2026-05-07 17:25 | 48.23415 | 11.76155 | 7019 ft | 199 kts | 150° |
| 2026-05-07 17:26 | 48.22277 | 11.77340 | 7010 ft | 199 kts | 151° |
| 2026-05-07 17:26 | 48.21128 | 11.78517 | 7008 ft | 199 kts | 151° |
| 2026-05-07 17:26 | 48.19984 | 11.79679 | 7004 ft | 199 kts | 151° |
| 2026-05-07 17:26 | 48.18836 | 11.80841 | 6999 ft | 199 kts | 151° |
| 2026-05-07 17:27 | 48.17691 | 11.82004 | 6998 ft | 200 kts | 149° |
| 2026-05-07 17:27 | 48.16761 | 11.83591 | 7010 ft | 205 kts | 129° |
| 2026-05-07 17:27 | 48.15919 | 11.85318 | 7022 ft | 205 kts | 131° |
| 2026-05-07 17:27 | 48.15045 | 11.87006 | 7019 ft | 205 kts | 133° |
| 2026-05-07 17:28 | 48.14181 | 11.88618 | 7017 ft | 204 kts | 133° |
| 2026-05-07 17:28 | 48.13281 | 11.90274 | 7010 ft | 204 kts | 133° |
| 2026-05-07 17:28 | 48.12381 | 11.91918 | 7011 ft | 204 kts | 134° |
| 2026-05-07 17:28 | 48.11478 | 11.93555 | 7009 ft | 204 kts | 134° |
| 2026-05-07 17:29 | 48.10573 | 11.95198 | 7005 ft | 204 kts | 134° |
| 2026-05-07 17:29 | 48.09672 | 11.96835 | 6998 ft | 204 kts | 134° |
| 2026-05-07 17:29 | 48.08770 | 11.98466 | 6996 ft | 203 kts | 134° |
| 2026-05-07 17:29 | 48.07867 | 12.00098 | 6989 ft | 203 kts | 134° |
| 2026-05-07 17:30 | 48.06968 | 12.01721 | 6992 ft | 202 kts | 134° |
| 2026-05-07 17:30 | 48.05899 | 12.03011 | 6992 ft | 197 kts | 154° |
| 2026-05-07 17:30 | 48.04682 | 12.04090 | 7010 ft | 216 kts | 153° |
| 2026-05-07 17:30 | 48.03327 | 12.05384 | 7016 ft | 252 kts | 150° |
| 2026-05-07 17:31 | 48.01766 | 12.06937 | 7046 ft | 282 kts | 149° |
| 2026-05-07 17:31 | 48.00137 | 12.08590 | 7019 ft | 284 kts | 148° |
| 2026-05-07 17:31 | 47.98487 | 12.10275 | 7001 ft | 284 kts | 148° |
| 2026-05-07 17:31 | 47.96879 | 12.11918 | 7010 ft | 283 kts | 148° |
| 2026-05-07 17:32 | 47.95248 | 12.13579 | 7568 ft | 286 kts | 148° |
| 2026-05-07 17:32 | 47.93577 | 12.15273 | 8411 ft | 287 kts | 149° |
| 2026-05-07 17:32 | 47.91988 | 12.17037 | 9256 ft | 290 kts | 143° |
| 2026-05-07 17:32 | 47.90953 | 12.18365 | 9824 ft | 292 kts | 142° |